الصفحة الرئيسية
METAR-TAF:

METAR-TAF

مطار :

مطار بروكسل الدولي

بروكسل, بلجيكا

دائرة عرض: 50-54N, خط طول: 004-32E, ارتفاع: 55 متر

مراقبة الطقس الحالي

تاريخ ووقت الإصدار 27 دقيقة قبل الساعة 01:50UTC
ريح 2 عقدة من الشمال الغربي
درجة الحرارة 15°درجة مئوية
الرطوبة 88%
ضغط 1019 hPa
الرؤية 10 كم أو أكثر
الغيوم لا تقل 1500 م ولا وجود لمزنة ركامية السحاب الأسود

METAR: EBBR 240150Z 31002KT CAVOK 15/13 Q1019 NOSIG

زمن: 04:17 (02:17 UTC)

توقعات

تاريخ ووقت الإصدار 2ساعات و 57 دقيقة قبل الساعة 23:20UTC
التوقعات صالحة من24 الساعة 00 UTC إلى 25 الساعة 06 UTC
ريح 6 عقدة من الشرق/الشمال الشرقي
الرؤية: 8000 متر
غيوم قليلة على ارتفاع 4800 قدم
نظرية الاحتمالات 30% :
مؤقت
من 24 الساعة 01 UTC إلى 24 الساعة 08 UTC
الرؤية: 3600 متر
غشاء
نظرية الاحتمالات 30% :
مؤقت
من 24 الساعة 14 UTC إلى 24 الساعة 21 UTC
الرؤية: 3800 متر
زخات من المطر, عاصفة رعدية, مطر
نظرية الاحتمالات 30% :
مؤقت
من 25 الساعة 01 UTC إلى 25 الساعة 06 UTC
الرؤية: 2500 متر
غشاء

TAF: EBBR 232320Z 2400/2506 06006KT 8000 FEW048 PROB30 TEMPO 2401/2408 3600 BR PROB30 TEMPO 2414/2421 3800 SHRA TSRA PROB30 TEMPO 2501/2506 2500 BR

أرصاد الطقس والتوقعات من أكثر من 4000 مطار (تقارير الطقس للمطار METAR والتنبؤ بالطقس بالمطارTAF).

المحطات المتاحة هي النقط الصفراء والحمراء على الخريطة.

حرك المؤشر فوق النقطة لمعرفة اسم المحطة.

ثم انقر لمعرفة أرصاد وتوقعات الطقس.

لتغيير الخارطة: اضغط على الأزرار الخضراء مع رمز الصليب الأسود للتكبير. على الزر الأخضر مع شرطة للتصغير، أو على الأسهم الخضراء للخرائط المجاورة.


METAR-TAF: